Time;durP1;ratioP1;P1;durP2;ratioP2;P2;SDS_P1;SDS_P2;PMS_P1;PMS_P2;Temp;Humidity;BMP_temperature;BMP_pressure;BME280_temperature;BME280_humidity;BME280_pressure;Samples;Min_cycle;Max_cycle;Signal;HPM_P1;HPM_P2
2023/08/13 00:01:32;;;;;;;9.82;6.35;;;;;;;22.43;62.71;101002.19;4990456;28;20057;-82
2023/08/13 00:03:57;;;;;;;13.70;5.78;;;;;;;22.46;62.93;101010.03;4990128;28;20896;-83
2023/08/13 00:06:23;;;;;;;9.38;6.20;;;;;;;22.44;63.12;101012.13;4990314;28;20065;-82
2023/08/13 00:08:48;;;;;;;14.20;6.55;;;;;;;22.38;62.91;100995.59;4990109;28;20113;-82
2023/08/13 00:11:14;;;;;;;11.70;5.88;;;;;;;22.39;63.45;101019.19;4990541;28;20479;-82
2023/08/13 00:13:40;;;;;;;13.27;6.45;;;;;;;22.36;63.63;101014.97;4990560;28;20026;-83
2023/08/13 00:16:07;;;;;;;12.10;6.25;;;;;;;22.36;64.04;101014.09;4990107;28;20026;-80
2023/08/13 00:18:33;;;;;;;11.63;6.97;;;;;;;22.41;63.98;101023.47;4990347;28;20133;-83
2023/08/13 00:20:59;;;;;;;22.80;7.05;;;;;;;22.32;63.97;101004.59;4989957;28;20109;-83
2023/08/13 00:23:25;;;;;;;11.30;6.53;;;;;;;22.31;64.17;101028.41;4990330;28;20473;-82
2023/08/13 00:25:50;;;;;;;15.70;6.80;;;;;;;22.32;64.38;101019.16;4989933;28;20088;-83
2023/08/13 00:28:16;;;;;;;13.40;6.25;;;;;;;22.35;64.31;101018.75;4990211;28;20486;-82
2023/08/13 00:30:41;;;;;;;12.93;6.22;;;;;;;22.33;63.97;101009.88;4989883;28;20034;-81
2023/08/13 00:33:06;;;;;;;14.68;6.75;;;;;;;22.32;64.04;101010.94;4990027;28;20026;-81
2023/08/13 00:35:32;;;;;;;18.77;6.57;;;;;;;22.35;64.26;101021.50;4989955;28;20026;-82
2023/08/13 00:37:57;;;;;;;12.73;6.57;;;;;;;22.33;64.36;101020.81;4989791;28;20050;-82
2023/08/13 00:40:23;;;;;;;12.07;5.70;;;;;;;22.31;64.57;101019.31;4988861;28;20028;-83
2023/08/13 00:42:48;;;;;;;14.60;6.97;;;;;;;22.21;65.26;101014.13;4989834;28;20022;-82
2023/08/13 00:45:14;;;;;;;14.05;6.55;;;;;;;22.16;65.46;101000.16;4990256;28;20026;-82
2023/08/13 00:47:40;;;;;;;17.00;6.65;;;;;;;22.18;65.53;101006.28;4988928;28;20027;-83
2023/08/13 00:50:06;;;;;;;23.00;7.82;;;;;;;22.10;65.99;101004.53;4989992;28;20437;-81
2023/08/13 00:52:32;;;;;;;14.98;6.18;;;;;;;22.13;64.73;101004.16;4990205;28;20023;-81
2023/08/13 00:54:58;;;;;;;8.52;4.68;;;;;;;22.10;62.31;100982.59;4990258;28;20026;-81
2023/08/13 00:57:24;;;;;;;14.02;5.63;;;;;;;22.20;59.28;100987.75;4990464;28;20034;-82
2023/08/13 00:59:50;;;;;;;8.82;4.60;;;;;;;22.22;57.15;100988.44;4987776;28;20117;-81
2023/08/13 01:02:17;;;;;;;6.22;3.90;;;;;;;22.26;55.83;100986.19;4990184;28;20030;-82
2023/08/13 01:04:42;;;;;;;5.07;3.97;;;;;;;22.25;55.10;100985.31;4989562;28;20113;-83
2023/08/13 01:07:14;;;;;;;9.55;4.20;;;;;;;22.24;55.24;100997.31;4993627;28;20142;-83
2023/08/13 01:10:00;;;;;;;6.33;4.10;;;;;;;22.26;54.41;100995.25;4994065;28;20034;-83
2023/08/13 01:13:04;;;;;;;7.75;3.45;;;;;;;22.29;53.79;100996.75;4993790;28;20026;-83
2023/08/13 01:15:35;;;;;;;7.68;3.60;;;;;;;22.28;54.09;100990.41;4952611;29;20539;-81
2023/08/13 01:18:01;;;;;;;5.83;3.93;;;;;;;22.24;53.83;100978.13;4952588;29;20047;-83
2023/08/13 01:20:38;;;;;;;13.02;4.35;;;;;;;22.22;53.95;100985.69;4952499;29;20073;-81
2023/08/13 01:23:04;;;;;;;8.15;4.57;;;;;;;22.25;53.96;100988.06;4952335;29;20086;-82
2023/08/13 01:25:31;;;;;;;15.27;4.40;;;;;;;22.25;54.05;100999.03;4952324;29;20035;-82
2023/08/13 01:28:08;;;;;;;5.10;3.30;;;;;;;22.29;53.67;100997.59;4920208;29;20138;-80
2023/08/13 01:30:56;;;;;;;10.23;3.92;;;;;;;22.29;53.59;100992.13;4952230;29;20023;-82
2023/08/13 01:33:34;;;;;;;5.60;4.13;;;;;;;22.28;53.92;100989.56;4952613;29;20078;-81
2023/08/13 01:36:04;;;;;;;8.20;3.65;;;;;;;22.29;53.55;100986.66;4952304;29;20137;-83
2023/08/13 01:38:31;;;;;;;10.48;4.43;;;;;;;22.31;53.75;101001.00;4952071;29;20062;-81
2023/08/13 01:40:57;;;;;;;7.72;3.65;;;;;;;22.23;53.79;100979.19;4952512;29;20131;-81
2023/08/13 01:43:22;;;;;;;5.22;3.65;;;;;;;22.37;53.71;100994.75;4952407;29;20045;-83
2023/08/13 01:45:48;;;;;;;10.15;3.95;;;;;;;22.44;53.66;100992.94;4952567;29;20466;-82
2023/08/13 01:48:13;;;;;;;13.60;4.40;;;;;;;22.40;53.66;100994.34;4952542;29;20711;-82
2023/08/13 01:50:39;;;;;;;8.48;3.75;;;;;;;22.43;53.60;100993.97;4952475;29;20491;-81
2023/08/13 01:53:05;;;;;;;10.52;4.78;;;;;;;22.47;53.64;100995.28;4992999;28;20564;-81
2023/08/13 01:55:30;;;;;;;6.57;4.45;;;;;;;22.33;53.61;100974.22;4993606;28;20101;-81
2023/08/13 01:57:56;;;;;;;5.57;3.65;;;;;;;22.36;54.28;100989.44;4993476;28;20037;-82
2023/08/13 02:00:21;;;;;;;7.55;3.85;;;;;;;22.33;53.94;100992.56;4993378;28;20445;-81
2023/08/13 02:02:47;;;;;;;6.78;3.92;;;;;;;22.23;54.25;100996.47;4994037;28;20493;-81
2023/08/13 02:05:12;;;;;;;10.90;4.05;;;;;;;22.21;54.06;100994.97;4993066;28;20022;-82
2023/08/13 02:07:38;;;;;;;19.38;4.85;;;;;;;22.19;54.44;101002.53;4975922;28;20031;-83
2023/08/13 02:10:04;;;;;;;11.52;4.32;;;;;;;22.17;54.45;101015.53;4993389;28;20027;-81
2023/08/13 02:12:29;;;;;;;6.30;3.97;;;;;;;22.05;54.64;101006.97;4993212;28;20030;-81
2023/08/13 02:14:55;;;;;;;7.80;3.65;;;;;;;22.04;55.19;101015.38;4993838;28;20560;-81
2023/08/13 02:17:20;;;;;;;6.05;3.80;;;;;;;21.97;54.94;101007.06;4993469;28;20081;-82
2023/08/13 02:19:46;;;;;;;9.80;4.50;;;;;;;22.10;55.16;101022.84;4995093;28;20498;-79
2023/08/13 02:22:12;;;;;;;7.93;4.45;;;;;;;22.04;55.36;101020.88;4999763;28;20049;-82
2023/08/13 02:24:37;;;;;;;12.75;4.38;;;;;;;22.02;55.38;101020.19;4998027;28;20109;-82
2023/08/13 02:27:03;;;;;;;11.73;4.15;;;;;;;21.99;55.48;101023.31;4995607;28;20509;-83
2023/08/13 02:29:28;;;;;;;6.38;4.07;;;;;;;21.92;55.74;101025.13;4993291;28;20035;-81
2023/08/13 02:31:54;;;;;;;6.07;4.22;;;;;;;21.84;55.76;101016.94;4993283;28;20485;-80
2023/08/13 02:34:19;;;;;;;7.32;4.57;;;;;;;21.88;55.82;101016.44;4993826;28;20038;-80
2023/08/13 02:36:45;;;;;;;6.63;4.60;;;;;;;21.85;56.07;101018.66;4992216;28;20034;-81
2023/08/13 02:39:10;;;;;;;11.95;5.22;;;;;;;21.71;56.13;100999.28;4992199;28;20022;-81
2023/08/13 02:41:36;;;;;;;8.30;4.47;;;;;;;21.83;56.31;101015.25;4991989;28;20057;-82
2023/08/13 02:44:01;;;;;;;8.18;5.15;;;;;;;21.88;56.52;101026.50;4991949;28;20023;-81
2023/08/13 02:46:27;;;;;;;7.90;4.93;;;;;;;22.00;56.33;101033.22;4991981;28;20033;-81
2023/08/13 02:48:54;;;;;;;13.95;4.47;;;;;;;22.04;56.77;101037.31;4991719;28;20150;-83
2023/08/13 02:51:21;;;;;;;10.77;4.35;;;;;;;21.88;57.30;101000.00;4991613;28;20038;-82
2023/08/13 02:53:46;;;;;;;10.60;4.72;;;;;;;22.13;56.73;101036.16;4991525;28;20482;-83
2023/08/13 02:56:12;;;;;;;17.48;4.90;;;;;;;22.17;56.60;101029.25;4991810;28;20035;-80
2023/08/13 02:58:37;;;;;;;19.25;5.70;;;;;;;22.14;56.75;101016.78;4991610;28;20026;-81
2023/08/13 03:01:03;;;;;;;13.35;5.07;;;;;;;22.21;56.25;101014.13;4991369;28;20026;-82
2023/08/13 03:03:29;;;;;;;7.50;4.63;;;;;;;22.31;56.12;101022.06;4992528;28;20096;-80
2023/08/13 03:05:55;;;;;;;9.60;5.25;;;;;;;22.30;55.98;101026.69;4992555;28;20026;-80
2023/08/13 03:08:21;;;;;;;10.70;5.13;;;;;;;22.28;56.10;101023.31;4992934;28;20034;-80
2023/08/13 03:10:46;;;;;;;11.73;5.32;;;;;;;22.30;56.03;101021.22;4997502;28;20061;-80
2023/08/13 03:13:11;;;;;;;14.57;5.50;;;;;;;22.30;56.16;101025.84;4993873;28;20521;-81
2023/08/13 03:15:37;;;;;;;21.95;4.90;;;;;;;22.23;56.36;101023.03;4993833;28;20425;-81
2023/08/13 03:18:02;;;;;;;19.85;5.82;;;;;;;22.16;56.29;101003.75;5008270;28;20029;-83
2023/08/13 03:20:28;;;;;;;10.30;5.57;;;;;;;22.21;56.34;101025.94;5007758;28;20027;-83
2023/08/13 03:22:53;;;;;;;17.92;5.95;;;;;;;22.14;56.46;101011.31;5003905;28;20027;-83
2023/08/13 03:25:19;;;;;;;8.77;5.25;;;;;;;22.10;56.39;101029.19;5001870;28;20101;-83
2023/08/13 03:27:46;;;;;;;6.18;4.97;;;;;;;22.04;56.62;101009.91;4997840;28;20045;-80
2023/08/13 03:30:11;;;;;;;10.43;6.32;;;;;;;22.03;56.66;101025.50;4997501;28;20037;-80
2023/08/13 03:32:40;;;;;;;28.17;8.27;;;;;;;21.97;56.77;101015.28;4998752;28;20030;-82
2023/08/13 03:35:06;;;;;;;33.00;12.93;;;;;;;21.93;57.07;101024.91;4998645;28;20056;-81
2023/08/13 03:37:31;;;;;;;15.57;8.68;;;;;;;21.89;57.31;101025.50;4990846;28;20066;-82
2023/08/13 03:39:56;;;;;;;14.60;8.88;;;;;;;21.81;57.31;101014.59;4991601;28;20087;-81
2023/08/13 03:42:22;;;;;;;12.55;6.35;;;;;;;21.86;57.26;101012.16;4991147;28;20030;-83
2023/08/13 03:44:47;;;;;;;8.40;5.32;;;;;;;21.92;57.51;101025.13;4990881;28;20023;-83
2023/08/13 03:47:13;;;;;;;11.18;6.70;;;;;;;21.93;57.38;101019.44;4991292;28;20530;-82
2023/08/13 03:49:38;;;;;;;13.00;8.32;;;;;;;21.98;57.11;101022.47;4990520;28;20558;-83
2023/08/13 03:52:04;;;;;;;10.13;6.70;;;;;;;21.90;57.26;101003.38;4990784;28;20030;-82
2023/08/13 03:54:30;;;;;;;10.73;6.05;;;;;;;21.91;57.00;101010.56;4990721;28;20030;-81
2023/08/13 03:56:56;;;;;;;8.95;5.97;;;;;;;21.95;57.04;101011.91;4990759;28;20053;-82
2023/08/13 03:59:21;;;;;;;13.52;6.00;;;;;;;22.02;56.91;101020.19;4990535;28;20527;-82
2023/08/13 04:01:46;;;;;;;9.18;6.15;;;;;;;22.07;56.77;101015.00;4990553;28;20037;-81
2023/08/13 04:04:12;;;;;;;13.07;6.20;;;;;;;22.08;56.70;101016.69;4990294;28;20510;-81
2023/08/13 04:06:38;;;;;;;17.55;5.47;;;;;;;22.12;56.26;101013.41;4990674;28;20030;-82
2023/08/13 04:09:04;;;;;;;10.55;5.97;;;;;;;22.18;56.15;101017.25;4990256;28;20116;-83
2023/08/13 04:11:29;;;;;;;17.55;5.55;;;;;;;22.13;56.44;101015.09;4990456;28;20080;-80
2023/08/13 04:13:55;;;;;;;13.05;6.03;;;;;;;22.14;56.83;101010.44;4990453;28;20109;-78
2023/08/13 04:16:20;;;;;;;9.45;5.05;;;;;;;22.26;56.33;101025.41;4990750;28;20077;-81
2023/08/13 04:18:46;;;;;;;14.45;5.32;;;;;;;22.35;55.78;101024.25;4991551;28;20034;-78
2023/08/13 04:21:11;;;;;;;13.50;7.47;;;;;;;22.42;55.77;101019.69;4990743;28;20034;-79
2023/08/13 04:23:37;;;;;;;11.48;5.93;;;;;;;22.53;55.19;101016.47;4990553;28;20022;-80
2023/08/13 04:26:02;;;;;;;15.10;6.20;;;;;;;22.68;54.71;101016.44;4990692;28;20022;-83
2023/08/13 04:28:28;;;;;;;8.02;5.93;;;;;;;22.75;54.57;101007.22;4991041;28;20065;-82
2023/08/13 04:30:54;;;;;;;14.07;5.95;;;;;;;22.87;54.32;101017.69;4990422;28;20486;-81
2023/08/13 04:33:20;;;;;;;22.17;7.57;;;;;;;22.91;53.85;101019.00;4990990;28;20038;-82
2023/08/13 04:35:45;;;;;;;10.98;5.10;;;;;;;22.88;54.03;101019.38;4990530;28;20521;-83
2023/08/13 04:38:10;;;;;;;15.45;6.45;;;;;;;22.76;53.84;101019.91;4990425;28;20057;-80
2023/08/13 04:40:36;;;;;;;9.45;6.43;;;;;;;22.80;54.06;101014.03;4990482;28;20116;-79
2023/08/13 04:43:01;;;;;;;14.02;5.95;;;;;;;22.80;53.38;101027.75;4990335;28;20144;-80
2023/08/13 04:45:27;;;;;;;11.07;5.90;;;;;;;22.83;53.18;101016.38;4989969;28;20027;-79
2023/08/13 04:47:53;;;;;;;15.25;6.55;;;;;;;22.86;53.39;101025.06;4990749;28;20022;-81
2023/08/13 04:50:19;;;;;;;10.48;6.25;;;;;;;22.97;52.81;101029.19;4990636;28;20123;-82
2023/08/13 04:52:44;;;;;;;14.27;5.38;;;;;;;23.03;52.26;101026.50;4990186;28;20053;-80
2023/08/13 04:55:10;;;;;;;15.65;6.15;;;;;;;23.12;52.04;101024.47;4990386;28;20128;-81
2023/08/13 04:57:35;;;;;;;20.88;5.63;;;;;;;23.13;51.17;101013.31;4990327;28;20022;-81
2023/08/13 05:00:01;;;;;;;15.15;6.22;;;;;;;23.21;50.72;101026.03;4991734;28;20062;-82
2023/08/13 05:02:27;;;;;;;11.98;8.25;;;;;;;23.31;49.18;101023.81;4992438;28;20156;-81
2023/08/13 05:04:53;;;;;;;8.35;4.47;;;;;;;23.44;48.03;101023.97;4990238;28;20026;-81
2023/08/13 05:07:19;;;;;;;15.25;6.45;;;;;;;23.55;47.72;101028.91;4989895;28;20027;-79
2023/08/13 05:09:45;;;;;;;7.72;4.75;;;;;;;23.68;47.05;101028.16;4989683;28;20057;-79
2023/08/13 05:12:10;;;;;;;11.48;4.22;;;;;;;23.84;46.80;101041.59;4989367;28;20161;-78
2023/08/13 05:14:35;;;;;;;18.45;5.05;;;;;;;23.97;45.68;101027.94;4989549;28;20058;-80
2023/08/13 05:17:01;;;;;;;15.10;5.45;;;;;;;24.05;45.38;101037.91;4989441;28;20027;-77
2023/08/13 05:19:26;;;;;;;8.48;5.28;;;;;;;24.23;45.25;101046.50;4988124;28;20040;-78
2023/08/13 05:21:52;;;;;;;11.07;4.25;;;;;;;24.27;44.88;101045.91;4989388;28;20030;-77
2023/08/13 05:24:17;;;;;;;8.18;4.18;;;;;;;24.31;44.28;101035.34;4989562;28;20030;-83
2023/08/13 05:26:43;;;;;;;13.32;4.55;;;;;;;24.50;43.90;101045.56;4987813;28;20038;-78
2023/08/13 05:29:09;;;;;;;9.40;5.60;;;;;;;24.61;43.54;101053.25;4989238;28;20027;-80
2023/08/13 05:31:35;;;;;;;11.40;5.00;;;;;;;24.62;43.63;101054.94;4976860;28;20038;-86
2023/08/13 05:34:00;;;;;;;13.30;4.70;;;;;;;24.75;43.44;101043.13;4970609;28;20415;-88
2023/08/13 05:36:26;;;;;;;12.30;3.78;;;;;;;24.77;43.19;101027.25;4972094;28;20369;-88
2023/08/13 05:38:52;;;;;;;6.95;4.20;;;;;;;24.96;42.94;101039.41;4976328;28;20059;-85
2023/08/13 05:41:17;;;;;;;11.73;4.85;;;;;;;25.12;42.83;101044.53;4984588;28;20042;-77
2023/08/13 05:43:43;;;;;;;20.17;5.68;;;;;;;25.20;42.17;101052.56;4969381;28;20058;-77
2023/08/13 05:46:08;;;;;;;23.08;4.85;;;;;;;25.29;41.94;101054.06;4969498;28;20034;-78
2023/08/13 05:48:34;;;;;;;8.63;4.07;;;;;;;25.37;41.73;101056.63;4969548;28;20081;-79
2023/08/13 05:50:59;;;;;;;8.73;4.10;;;;;;;25.36;41.95;101039.25;4967188;28;20087;-80
2023/08/13 05:53:25;;;;;;;22.48;5.40;;;;;;;25.40;41.36;101032.28;4974052;28;20039;-80
2023/08/13 05:55:51;;;;;;;16.35;6.35;;;;;;;25.55;41.87;101045.84;4973054;28;20054;-83
2023/08/13 05:58:16;;;;;;;9.77;3.72;;;;;;;25.63;41.47;101051.13;4973199;28;20443;-80
2023/08/13 06:00:42;;;;;;;9.95;5.60;;;;;;;25.62;42.13;101041.19;4972844;28;20109;-80
2023/08/13 06:03:08;;;;;;;7.22;4.38;;;;;;;25.71;41.85;101050.94;4973314;28;20380;-80
2023/08/13 06:05:33;;;;;;;11.57;4.28;;;;;;;25.74;41.48;101044.16;4972937;28;20626;-86
2023/08/13 06:07:59;;;;;;;21.10;4.75;;;;;;;25.81;41.75;101039.47;4973669;28;20035;-78
2023/08/13 06:10:25;;;;;;;15.35;4.78;;;;;;;26.01;41.57;101058.75;4973124;28;20088;-78
2023/08/13 06:12:50;;;;;;;22.08;5.82;;;;;;;26.10;41.22;101052.78;4972855;28;20479;-79
2023/08/13 06:15:15;;;;;;;48.92;8.50;;;;;;;26.13;41.50;101054.25;4973461;28;20027;-90
2023/08/13 06:17:46;;;;;;;7.78;4.30;;;;;;;26.22;40.96;101047.47;4973310;28;20154;-81
2023/08/13 06:20:12;;;;;;;8.35;3.72;;;;;;;26.35;39.55;101047.44;4973132;28;20053;-82
2023/08/13 06:22:38;;;;;;;6.63;4.13;;;;;;;26.40;40.01;101044.88;4973677;28;20035;-85
2023/08/13 06:25:04;;;;;;;8.02;4.30;;;;;;;26.55;39.54;101056.47;4973220;28;20399;-87
2023/08/13 06:27:29;;;;;;;10.15;3.97;;;;;;;26.61;39.36;101041.81;4972695;28;20057;-79
2023/08/13 06:29:54;;;;;;;18.23;4.15;;;;;;;26.79;39.06;101057.63;4972478;28;20026;-78
2023/08/13 06:32:20;;;;;;;12.68;5.65;;;;;;;26.81;37.88;101042.59;4972429;28;20035;-81
2023/08/13 06:34:45;;;;;;;7.68;3.58;;;;;;;26.98;37.88;101043.75;4972547;28;20018;-80
2023/08/13 06:37:11;;;;;;;9.02;4.13;;;;;;;27.10;37.62;101054.09;4972591;28;20057;-80
2023/08/13 06:39:37;;;;;;;22.27;5.00;;;;;;;27.17;37.45;101052.13;4973080;28;20097;-81
2023/08/13 06:42:02;;;;;;;12.50;4.82;;;;;;;27.21;37.58;101039.56;4972784;28;20034;-78
2023/08/13 06:44:28;;;;;;;11.80;4.97;;;;;;;27.34;36.92;101050.50;4972815;28;20102;-78
2023/08/13 06:46:53;;;;;;;10.57;4.72;;;;;;;27.40;36.48;101046.88;4972435;28;20030;-78
2023/08/13 06:49:18;;;;;;;7.72;3.80;;;;;;;27.43;35.44;101043.69;4971985;28;20202;-80
2023/08/13 06:51:44;;;;;;;6.70;3.95;;;;;;;27.47;35.24;101036.63;4972424;28;20038;-80
2023/08/13 06:54:10;;;;;;;5.85;3.88;;;;;;;27.56;35.28;101036.13;4972414;28;20027;-79
2023/08/13 06:56:36;;;;;;;9.57;5.13;;;;;;;27.66;35.02;101032.84;4972335;28;20061;-80
2023/08/13 06:59:02;;;;;;;12.23;5.63;;;;;;;27.78;35.37;101042.09;4972214;28;20065;-80
2023/08/13 07:01:29;;;;;;;8.93;3.45;;;;;;;27.81;34.33;101038.88;4972769;28;20058;-82
2023/08/13 07:03:55;;;;;;;8.40;4.10;;;;;;;27.80;34.32;101015.06;4971616;28;20058;-81
2023/08/13 07:06:21;;;;;;;9.10;4.45;;;;;;;28.01;34.01;101033.16;4971306;28;20030;-80
2023/08/13 07:08:46;;;;;;;18.02;6.05;;;;;;;28.08;34.03;101029.25;4976153;28;20019;-81
2023/08/13 07:11:12;;;;;;;8.93;4.00;;;;;;;28.18;33.96;101027.88;4977727;28;20054;-81
2023/08/13 07:13:37;;;;;;;23.05;8.43;;;;;;;28.26;33.87;101028.41;4975092;28;20031;-82
2023/08/13 07:16:03;;;;;;;21.10;6.07;;;;;;;28.32;33.38;101026.63;4971705;28;20447;-78
2023/08/13 07:18:29;;;;;;;29.02;5.90;;;;;;;28.46;33.42;101036.47;4971888;28;20066;-79
2023/08/13 07:20:54;;;;;;;16.60;3.92;;;;;;;28.47;33.60;101027.13;4971705;28;20031;-76
2023/08/13 07:23:19;;;;;;;11.65;4.15;;;;;;;28.54;33.81;101033.38;4971761;28;21056;-82
2023/08/13 07:25:46;;;;;;;14.27;4.78;;;;;;;28.46;33.86;101017.97;4972404;28;20035;-84
2023/08/13 07:28:12;;;;;;;19.05;5.03;;;;;;;28.70;34.06;101034.72;4971772;28;20050;-82
2023/08/13 07:30:38;;;;;;;23.30;6.13;;;;;;;28.79;33.58;101039.69;4977329;28;20054;-82
2023/08/13 07:33:04;;;;;;;8.73;3.70;;;;;;;28.85;33.88;101037.91;4991238;28;20030;-81
2023/08/13 07:35:31;;;;;;;23.67;6.25;;;;;;;28.83;34.01;101035.38;4993467;28;20027;-79
2023/08/13 07:37:56;;;;;;;7.65;4.00;;;;;;;28.85;33.69;101035.97;4990628;28;20092;-80
2023/08/13 07:40:22;;;;;;;10.90;3.60;;;;;;;28.82;34.51;101030.06;4990881;28;20086;-78
2023/08/13 07:42:47;;;;;;;6.85;3.50;;;;;;;28.79;34.68;101014.78;4990674;28;20101;-83
2023/08/13 07:45:14;;;;;;;14.77;4.05;;;;;;;28.80;35.15;101033.09;4990975;28;20034;-80
2023/08/13 07:47:39;;;;;;;10.52;3.22;;;;;;;28.74;34.99;101022.94;4990469;28;20721;-94
2023/08/13 07:50:05;;;;;;;10.43;4.43;;;;;;;28.78;35.37;101015.84;4989729;28;20032;-80
2023/08/13 07:52:31;;;;;;;10.85;3.90;;;;;;;28.87;35.08;101028.28;4990570;28;20117;-79
2023/08/13 07:54:57;;;;;;;10.93;3.95;;;;;;;28.96;35.15;101042.66;4990585;28;20101;-80
2023/08/13 07:57:22;;;;;;;15.25;4.18;;;;;;;29.06;34.31;101045.69;4990817;28;20088;-81
2023/08/13 07:59:48;;;;;;;13.27;4.00;;;;;;;29.01;34.07;101035.34;4990865;28;20514;-84
2023/08/13 08:02:13;;;;;;;43.15;7.80;;;;;;;29.11;35.17;101038.34;4991909;28;20022;-79
2023/08/13 08:04:39;;;;;;;6.72;3.67;;;;;;;29.24;35.39;101044.81;4992638;28;20033;-79
2023/08/13 08:07:04;;;;;;;8.32;3.30;;;;;;;29.18;34.99;101030.78;4992634;28;20034;-82
2023/08/13 08:09:30;;;;;;;12.10;4.53;;;;;;;29.32;34.98;101036.16;4991874;28;20034;-83
2023/08/13 08:11:55;;;;;;;4.75;3.22;;;;;;;29.37;34.82;101036.28;4990463;28;20556;-81
2023/08/13 08:14:20;;;;;;;17.33;3.95;;;;;;;29.34;34.68;101028.44;4991178;28;20490;-79
2023/08/13 08:16:46;;;;;;;6.10;3.20;;;;;;;29.44;34.74;101028.72;4992670;28;20030;-81
2023/08/13 08:19:12;;;;;;;12.98;3.20;;;;;;;29.57;34.06;101037.63;4990650;28;20027;-80
2023/08/13 08:21:37;;;;;;;16.42;3.42;;;;;;;29.59;34.42;101034.63;4990466;28;20026;-80
2023/08/13 08:24:04;;;;;;;8.95;3.65;;;;;;;29.57;34.52;101017.41;4990303;28;20034;-80
2023/08/13 08:26:29;;;;;;;6.85;3.17;;;;;;;29.62;33.93;101031.38;4955542;28;20035;-80
2023/08/13 08:28:55;;;;;;;9.00;3.28;;;;;;;29.68;34.49;101030.44;4990539;28;20034;-79
2023/08/13 08:31:20;;;;;;;13.90;3.88;;;;;;;29.62;34.23;101031.38;4971470;28;20085;-81
2023/08/13 08:33:46;;;;;;;3.97;2.83;;;;;;;29.62;34.16;101023.06;4989979;28;20037;-81
2023/08/13 08:36:11;;;;;;;5.55;3.63;;;;;;;29.66;34.08;101022.31;4989941;28;20022;-80
2023/08/13 08:38:37;;;;;;;13.63;3.28;;;;;;;29.67;37.94;101023.19;4990222;28;20050;-81
2023/08/13 08:41:03;;;;;;;9.20;4.55;;;;;;;29.67;42.30;101025.94;4989746;28;20026;-82
2023/08/13 08:43:30;;;;;;;14.73;4.53;;;;;;;29.70;44.38;101023.53;4990017;28;20475;-81
2023/08/13 08:45:57;;;;;;;13.20;4.00;;;;;;;29.63;47.26;101014.50;4989788;28;20034;-80
2023/08/13 08:48:26;;;;;;;13.18;4.03;;;;;;;29.62;44.95;101021.16;4990095;28;20026;-80
2023/08/13 08:50:53;;;;;;;7.80;3.47;;;;;;;29.68;44.97;101030.44;4989909;28;20069;-80
2023/08/13 08:53:20;;;;;;;10.88;4.20;;;;;;;29.58;45.76;101027.38;4990097;28;20027;-80
2023/08/13 08:55:47;;;;;;;9.07;3.60;;;;;;;29.63;45.92;101005.34;4989420;28;20064;-81
2023/08/13 08:58:13;;;;;;;13.82;3.90;;;;;;;29.68;43.66;101019.34;4990186;28;20035;-79
2023/08/13 09:00:38;;;;;;;63.47;10.63;;;;;;;29.68;43.76;101014.63;4989778;28;20076;-82
2023/08/13 09:03:04;;;;;;;16.50;4.80;;;;;;;29.78;45.02;101025.13;4990052;28;20018;-81
2023/08/13 09:05:32;;;;;;;17.80;4.28;;;;;;;29.80;44.55;101016.56;4989724;28;20120;-80
2023/08/13 09:07:57;;;;;;;8.90;4.15;;;;;;;29.87;43.73;101018.16;4989781;28;20054;-80
2023/08/13 09:10:23;;;;;;;11.40;4.28;;;;;;;29.86;41.87;101016.47;4989237;28;20411;-79
2023/08/13 09:12:52;;;;;;;12.20;4.80;;;;;;;29.85;41.74;101013.91;4990251;28;20176;-81
2023/08/13 09:15:17;;;;;;;16.05;4.95;;;;;;;29.88;40.47;101005.97;4989662;28;20468;-79
2023/08/13 09:17:43;;;;;;;8.25;3.00;;;;;;;29.95;38.92;101009.47;4989758;28;20114;-80
2023/08/13 09:20:20;;;;;;;18.73;4.47;;;;;;;29.97;38.88;101015.59;4971281;28;20396;-82
2023/08/13 09:22:50;;;;;;;8.88;3.53;;;;;;;29.98;36.78;101014.53;4989903;28;20030;-80
2023/08/13 09:25:16;;;;;;;13.88;4.03;;;;;;;29.94;36.91;101016.09;4989989;28;20026;-79
2023/08/13 09:27:42;;;;;;;10.35;3.13;;;;;;;29.91;36.93;101007.41;4993059;28;20116;-79
2023/08/13 09:30:18;;;;;;;6.18;3.47;;;;;;;29.96;36.07;101011.16;4995356;28;20022;-81
2023/08/13 09:32:46;;;;;;;15.00;3.58;;;;;;;30.04;36.19;101008.00;4994264;28;20401;-81
2023/08/13 09:35:11;;;;;;;11.80;4.15;;;;;;;30.00;36.08;100983.78;4994080;28;20125;-81
2023/08/13 09:37:37;;;;;;;13.13;3.88;;;;;;;30.17;35.83;100985.56;4993010;28;21153;-81
2023/08/13 09:40:03;;;;;;;44.35;6.68;;;;;;;30.23;35.20;100989.28;4993293;28;20031;-83
2023/08/13 09:42:32;;;;;;;10.57;3.10;;;;;;;30.31;35.23;100993.59;4991761;28;20034;-81
2023/08/13 09:44:59;;;;;;;17.23;4.10;;;;;;;30.33;34.59;100999.75;4993015;28;20125;-81
2023/08/13 09:47:26;;;;;;;13.73;3.63;;;;;;;30.34;34.19;101002.25;4993144;28;20030;-79
2023/08/13 09:49:55;;;;;;;16.73;4.13;;;;;;;30.36;34.24;100993.72;4992939;28;20110;-81
2023/08/13 09:52:27;;;;;;;9.88;3.90;;;;;;;30.44;34.81;101005.28;4993363;28;21024;-82
2023/08/13 09:54:55;;;;;;;31.30;5.30;;;;;;;30.38;33.62;100994.28;4992713;28;20532;-82
2023/08/13 09:57:22;;;;;;;9.40;3.72;;;;;;;30.52;34.06;100993.78;4992974;28;20101;-80
2023/08/13 09:59:51;;;;;;;13.05;4.03;;;;;;;30.53;34.40;101000.19;4992655;28;20504;-81
2023/08/13 10:02:18;;;;;;;18.20;3.53;;;;;;;30.53;34.67;101008.53;4992723;28;20210;-82
2023/08/13 10:04:45;;;;;;;8.65;3.65;;;;;;;30.66;35.04;100999.91;4992843;28;20113;-82
2023/08/13 10:07:12;;;;;;;13.35;3.28;;;;;;;30.73;35.45;101000.63;4992606;28;20027;-80
2023/08/13 10:09:39;;;;;;;7.03;3.55;;;;;;;30.72;35.40;100999.75;4991540;28;20402;-83
2023/08/13 10:12:06;;;;;;;8.77;3.38;;;;;;;30.72;35.63;100996.13;4992808;28;20407;-82
2023/08/13 10:14:32;;;;;;;14.60;3.33;;;;;;;30.69;38.61;100994.72;4992561;28;20058;-84
2023/08/13 10:17:06;;;;;;;15.82;4.60;;;;;;;30.83;40.72;100977.72;4992661;28;20065;-81
2023/08/13 10:19:36;;;;;;;8.75;4.20;;;;;;;30.79;40.42;100987.66;4992981;28;20094;-80
2023/08/13 10:22:01;;;;;;;6.78;3.72;;;;;;;30.77;38.74;100979.56;4992705;28;20469;-81
2023/08/13 10:24:30;;;;;;;6.68;3.30;;;;;;;30.84;37.59;100980.25;4992507;28;20027;-80
2023/08/13 10:26:59;;;;;;;9.77;3.53;;;;;;;30.86;36.80;100994.72;4992475;28;20113;-81
2023/08/13 10:29:35;;;;;;;8.98;3.15;;;;;;;30.95;35.44;100987.72;4992584;28;20376;-81
2023/08/13 10:32:12;;;;;;;8.00;3.40;;;;;;;30.99;36.78;100976.94;4992180;28;20053;-81
2023/08/13 10:34:47;;;;;;;8.23;3.55;;;;;;;30.99;37.59;100983.34;4992313;28;20504;-80
2023/08/13 10:37:23;;;;;;;17.85;3.65;;;;;;;30.96;39.58;100983.00;4992590;28;20502;-81
2023/08/13 10:39:54;;;;;;;21.40;5.38;;;;;;;30.98;40.90;100989.13;4992330;28;20034;-81
2023/08/13 10:42:26;;;;;;;10.38;4.63;;;;;;;30.96;41.83;100989.41;4991024;28;20121;-80
2023/08/13 10:44:52;;;;;;;6.05;3.47;;;;;;;30.63;40.77;100979.03;4992028;28;20093;-81
2023/08/13 10:47:18;;;;;;;16.35;4.32;;;;;;;30.77;40.29;100977.63;4992093;28;20085;-81
2023/08/13 10:49:44;;;;;;;6.35;3.67;;;;;;;30.89;40.19;100980.34;4992221;28;20026;-81
2023/08/13 10:52:13;;;;;;;12.85;4.20;;;;;;;31.12;40.20;100977.47;4992087;28;20038;-80
2023/08/13 10:54:39;;;;;;;6.95;3.45;;;;;;;31.26;40.44;100966.84;4992310;28;20086;-81
2023/08/13 10:57:05;;;;;;;13.50;3.78;;;;;;;31.36;40.57;100971.75;4992175;28;20040;-81
2023/08/13 10:59:37;;;;;;;13.25;4.28;;;;;;;31.52;40.78;100970.94;4991968;28;20466;-80
2023/08/13 11:02:19;;;;;;;14.75;4.00;;;;;;;31.35;41.29;100964.50;4992125;28;20033;-80
2023/08/13 11:04:46;;;;;;;11.77;4.13;;;;;;;31.31;40.11;100958.63;4991984;28;20023;-79
2023/08/13 11:07:13;;;;;;;11.30;3.95;;;;;;;31.50;40.89;100959.19;4991949;28;20034;-80
2023/08/13 11:09:39;;;;;;;13.23;4.35;;;;;;;31.54;41.33;100952.88;4992069;28;20026;-81
2023/08/13 11:12:08;;;;;;;20.85;4.13;;;;;;;31.43;38.01;100966.88;4991987;28;20033;-80
2023/08/13 11:14:35;;;;;;;28.08;4.35;;;;;;;31.30;36.85;100959.69;4991571;28;20491;-81
2023/08/13 11:17:01;;;;;;;22.13;4.85;;;;;;;31.11;36.48;100956.34;4990255;28;20129;-81